createdAt,value
2023-02-22T00:00:27.847Z,4.42
2023-02-22T00:01:27.834Z,4.37
2023-02-22T00:02:27.825Z,4.30
2023-02-22T00:03:27.910Z,4.34
2023-02-22T00:04:27.807Z,4.36
2023-02-22T00:05:27.778Z,4.23
2023-02-22T00:06:27.771Z,4.20
2023-02-22T00:07:27.760Z,4.15
2023-02-22T00:08:27.749Z,4.26
2023-02-22T00:09:27.730Z,4.23
2023-02-22T00:10:27.717Z,4.29
2023-02-22T00:11:27.703Z,4.37
2023-02-22T00:12:27.695Z,4.42
2023-02-22T00:13:27.703Z,4.45
2023-02-22T00:14:27.668Z,4.47
2023-02-22T00:15:27.653Z,4.52
2023-02-22T00:16:27.807Z,4.48
2023-02-22T00:17:27.627Z,4.40
2023-02-22T00:18:27.615Z,4.36
2023-02-22T00:19:27.622Z,4.36
2023-02-22T00:20:27.587Z,4.33
2023-02-22T00:21:27.580Z,4.34
2023-02-22T00:22:27.566Z,4.34
2023-02-22T00:23:27.551Z,4.36
2023-02-22T00:24:27.537Z,4.34
2023-02-22T00:25:27.532Z,4.33
2023-02-22T00:26:27.527Z,4.36
2023-02-22T00:27:27.498Z,4.34
2023-02-22T00:28:27.499Z,4.34
2023-02-22T00:29:27.495Z,4.33
2023-02-22T00:30:27.498Z,4.29
2023-02-22T00:31:27.461Z,4.41
2023-02-22T00:32:27.478Z,4.42
2023-02-22T00:33:27.418Z,4.40
2023-02-22T00:34:27.411Z,4.32
2023-02-22T00:35:27.392Z,4.24
2023-02-22T00:36:27.380Z,4.22
2023-02-22T00:37:27.367Z,4.11
2023-02-22T00:38:27.357Z,4.01
2023-02-22T00:39:27.341Z,4.07
2023-02-22T00:40:27.329Z,4.07
2023-02-22T00:41:27.335Z,4.11
2023-02-22T00:42:27.303Z,4.12
2023-02-22T00:43:27.290Z,4.12
2023-02-22T00:44:27.279Z,4.08
2023-02-22T00:45:27.381Z,4.01
2023-02-22T00:46:27.249Z,3.96
2023-02-22T00:47:27.244Z,3.95
2023-02-22T00:48:27.226Z,3.99
2023-02-22T00:49:27.240Z,4.03
2023-02-22T00:50:27.203Z,4.08
2023-02-22T00:51:27.187Z,4.12
2023-02-22T00:52:27.175Z,4.22
2023-02-22T00:53:27.168Z,4.24
2023-02-22T00:54:27.148Z,4.20
2023-02-22T00:55:27.144Z,4.15
2023-02-22T00:56:27.124Z,4.05
2023-02-22T00:57:27.110Z,4.03
2023-02-22T00:58:27.099Z,3.97
2023-02-22T00:59:27.083Z,3.97
2023-02-22T01:00:27.074Z,3.96
2023-02-22T01:01:27.099Z,3.92
2023-02-22T01:02:27.078Z,3.92
2023-02-22T01:03:27.030Z,3.92
2023-02-22T01:04:27.019Z,3.97
2023-02-22T01:05:27.027Z,4.04
2023-02-22T01:06:26.995Z,4.04
2023-02-22T01:07:26.981Z,4.01
2023-02-22T01:08:26.970Z,3.93
2023-02-22T01:09:26.953Z,3.86
2023-02-22T01:10:26.943Z,3.82
2023-02-22T01:11:26.926Z,3.79
2023-02-22T01:12:26.932Z,3.74
2023-02-22T01:13:26.900Z,3.67
2023-02-22T01:14:26.890Z,3.64
2023-02-22T01:15:26.876Z,3.61
2023-02-22T01:16:26.887Z,3.57
2023-02-22T01:17:26.889Z,3.57
2023-02-22T01:18:26.838Z,3.64
2023-02-22T01:19:26.823Z,3.56
2023-02-22T01:20:26.812Z,3.50
2023-02-22T01:21:26.797Z,3.53
2023-02-22T01:22:26.789Z,3.56
2023-02-22T01:23:26.772Z,3.53
2023-02-22T01:24:26.759Z,3.54
2023-02-22T01:25:26.755Z,3.50
2023-02-22T01:26:26.736Z,3.47
2023-02-22T01:27:26.720Z,3.49
2023-02-22T01:28:26.710Z,3.39
2023-02-22T01:29:26.696Z,3.32
2023-02-22T01:30:26.788Z,3.38
2023-02-22T01:31:26.725Z,3.41
2023-02-22T01:32:26.661Z,3.50
2023-02-22T01:33:26.669Z,3.42
2023-02-22T01:34:26.647Z,3.46
2023-02-22T01:35:26.616Z,3.49
2023-02-22T01:36:26.606Z,3.42
2023-02-22T01:37:26.590Z,3.50
2023-02-22T01:38:26.579Z,3.59
2023-02-22T01:39:26.564Z,3.60
2023-02-22T01:40:26.556Z,3.67
2023-02-22T01:41:26.538Z,3.71
2023-02-22T01:42:26.525Z,3.64
2023-02-22T01:43:26.511Z,3.67
2023-02-22T01:44:26.500Z,3.75
2023-02-22T01:45:26.485Z,3.79
2023-02-22T01:46:26.510Z,3.78
2023-02-22T01:47:26.458Z,3.79
2023-02-22T01:48:26.448Z,3.82
2023-02-22T01:49:26.458Z,3.79
2023-02-22T01:50:26.422Z,3.83
2023-02-22T01:51:26.413Z,3.78
2023-02-22T01:52:26.399Z,3.75
2023-02-22T01:53:26.382Z,3.74
2023-02-22T01:54:26.374Z,3.68
2023-02-22T01:55:26.360Z,3.78
2023-02-22T01:56:26.351Z,3.75
2023-02-22T01:57:26.326Z,3.75
2023-02-22T01:58:26.317Z,3.61
2023-02-22T01:59:26.316Z,3.56
2023-02-22T02:00:26.292Z,3.49
2023-02-22T02:01:26.278Z,3.38
2023-02-22T02:02:26.296Z,3.31
2023-02-22T02:03:26.260Z,3.23
2023-02-22T02:04:26.247Z,3.24
2023-02-22T02:05:26.249Z,3.21
2023-02-22T02:06:26.214Z,3.23
2023-02-22T02:07:26.204Z,3.32
2023-02-22T02:08:26.189Z,3.38
2023-02-22T02:09:26.174Z,3.33
2023-02-22T02:10:26.163Z,3.33
2023-02-22T02:11:26.148Z,3.36
2023-02-22T02:12:26.137Z,3.38
2023-02-22T02:13:26.133Z,3.46
2023-02-22T02:14:26.117Z,3.46
2023-02-22T02:15:26.101Z,3.49
2023-02-22T02:16:26.109Z,3.47
2023-02-22T02:17:26.073Z,3.50
2023-02-22T02:18:26.063Z,3.46
2023-02-22T02:19:26.049Z,3.46
2023-02-22T02:20:26.037Z,3.44
2023-02-22T02:21:26.049Z,3.47
2023-02-22T02:22:26.017Z,3.50
2023-02-22T02:23:25.996Z,3.50
2023-02-22T02:24:25.986Z,3.56
2023-02-22T02:25:25.970Z,3.59
2023-02-22T02:26:25.961Z,3.61
2023-02-22T02:27:25.946Z,3.64
2023-02-22T02:28:25.935Z,3.72
2023-02-22T02:29:25.919Z,3.77
2023-02-22T02:30:25.967Z,3.74
2023-02-22T02:31:26.038Z,3.77
2023-02-22T02:32:25.962Z,3.79
2023-02-22T02:33:25.873Z,3.79
2023-02-22T02:34:25.858Z,3.83
2023-02-22T02:35:25.842Z,3.86
2023-02-22T02:36:25.838Z,3.90
2023-02-22T02:37:25.863Z,3.85
2023-02-22T02:38:25.833Z,3.82
2023-02-22T02:39:25.815Z,3.83
2023-02-22T02:40:25.831Z,3.95
2023-02-22T02:41:25.768Z,4.08
2023-02-22T02:42:25.755Z,4.11
2023-02-22T02:43:25.738Z,4.18
2023-02-22T02:44:25.738Z,4.18
2023-02-22T02:45:25.714Z,4.24
2023-02-22T02:46:25.708Z,4.20
2023-02-22T02:47:25.732Z,4.16
2023-02-22T02:48:25.682Z,4.03
2023-02-22T02:49:25.661Z,4.01
2023-02-22T02:50:25.652Z,4.01
2023-02-22T02:51:25.640Z,3.97
2023-02-22T02:52:25.628Z,3.99
2023-02-22T02:53:25.635Z,4.14
2023-02-22T02:54:25.602Z,4.20
2023-02-22T02:56:25.575Z,4.20
2023-02-22T02:57:25.564Z,4.03
2023-02-22T02:58:25.551Z,3.97
2023-02-22T02:59:25.544Z,3.99
2023-02-22T03:00:25.527Z,4.04
2023-02-22T03:01:25.531Z,4.05
2023-02-22T03:02:25.504Z,4.11
2023-02-22T03:03:25.493Z,4.07
2023-02-22T03:04:25.476Z,4.05
2023-02-22T03:05:25.464Z,4.05
2023-02-22T03:06:25.461Z,4.05
2023-02-22T03:07:25.503Z,4.05
2023-02-22T03:08:25.428Z,4.12
2023-02-22T03:09:25.439Z,4.18
2023-02-22T03:10:25.409Z,4.27
2023-02-22T03:11:25.391Z,4.40
2023-02-22T03:12:25.374Z,4.62
2023-02-22T03:13:25.372Z,4.83
2023-02-22T03:14:25.357Z,4.96
2023-02-22T03:15:25.338Z,4.99
2023-02-22T03:16:25.369Z,4.99
2023-02-22T03:17:25.314Z,4.96
2023-02-22T03:18:25.313Z,4.87
2023-02-22T03:19:25.299Z,4.78
2023-02-22T03:20:25.278Z,4.80
2023-02-22T03:21:25.265Z,4.81
2023-02-22T03:22:25.254Z,4.84
2023-02-22T03:23:25.345Z,4.87
2023-02-22T03:24:25.230Z,4.98
2023-02-22T03:25:25.241Z,5.06
2023-02-22T03:26:25.214Z,5.20
2023-02-22T03:27:25.191Z,5.21
2023-02-22T03:28:25.182Z,5.19
2023-02-22T03:29:25.165Z,5.20
2023-02-22T03:30:25.199Z,5.14
2023-02-22T03:31:25.146Z,5.03
2023-02-22T03:32:25.222Z,4.85
2023-02-22T03:33:25.118Z,4.69
2023-02-22T03:34:25.108Z,4.45
2023-02-22T03:35:25.094Z,4.36
2023-02-22T03:36:25.118Z,4.30
2023-02-22T03:37:25.071Z,4.29
2023-02-22T03:38:25.058Z,4.32
2023-02-22T03:39:25.047Z,4.37
2023-02-22T03:40:25.037Z,4.40
2023-02-22T03:41:25.060Z,4.48
2023-02-22T03:42:25.008Z,4.59
2023-02-22T03:43:25.033Z,4.63
2023-02-22T03:44:24.991Z,4.70
2023-02-22T03:45:24.972Z,4.66
2023-02-22T03:46:25.011Z,4.72
2023-02-22T03:47:24.945Z,4.69
2023-02-22T03:48:24.932Z,4.75
2023-02-22T03:49:24.918Z,4.78
2023-02-22T03:50:24.908Z,4.87
2023-02-22T03:51:24.914Z,4.84
2023-02-22T03:52:24.882Z,4.83
2023-02-22T03:53:24.864Z,4.88
2023-02-22T03:54:24.860Z,4.91
2023-02-22T03:55:24.837Z,4.91
2023-02-22T03:56:24.826Z,4.85
2023-02-22T03:57:24.835Z,4.91
2023-02-22T03:58:24.799Z,5.05
2023-02-22T03:59:24.781Z,5.12
2023-02-22T04:00:24.771Z,5.20
2023-02-22T04:01:24.757Z,5.34
2023-02-22T04:02:24.741Z,5.38
2023-02-22T04:03:24.733Z,5.34
2023-02-22T04:04:24.745Z,5.29
2023-02-22T04:05:24.712Z,5.29
2023-02-22T04:06:24.687Z,5.19
2023-02-22T04:07:24.676Z,5.14
2023-02-22T04:08:24.658Z,5.01
2023-02-22T04:09:24.656Z,4.83
2023-02-22T04:10:24.653Z,4.83
2023-02-22T04:11:24.627Z,4.87
2023-02-22T04:12:24.608Z,4.96
2023-02-22T04:13:24.619Z,4.99
2023-02-22T04:14:24.582Z,5.05
2023-02-22T04:15:24.570Z,5.12
2023-02-22T04:16:24.554Z,5.14
2023-02-22T04:17:24.542Z,5.14
2023-02-22T04:18:24.529Z,5.21
2023-02-22T04:19:24.519Z,5.21
2023-02-22T04:20:24.500Z,5.26
2023-02-22T04:21:24.496Z,5.32
2023-02-22T04:22:24.478Z,5.32
2023-02-22T04:23:24.465Z,5.35
2023-02-22T04:24:24.447Z,5.35
2023-02-22T04:25:24.478Z,5.34
2023-02-22T04:26:24.427Z,5.23
2023-02-22T04:27:24.409Z,5.17
2023-02-22T04:28:24.396Z,5.14
2023-02-22T04:29:24.414Z,5.05
2023-02-22T04:30:24.417Z,5.02
2023-02-22T04:31:24.390Z,5.03
2023-02-22T04:32:24.391Z,5.01
2023-02-22T04:33:24.352Z,4.93
2023-02-22T04:34:24.323Z,4.91
2023-02-22T04:35:24.305Z,4.83
2023-02-22T04:36:24.291Z,4.87
2023-02-22T04:37:24.278Z,4.90
2023-02-22T04:38:24.263Z,4.95
2023-02-22T04:39:24.286Z,4.90
2023-02-22T04:40:24.237Z,4.91
2023-02-22T04:41:25.613Z,4.85
2023-02-22T04:42:24.210Z,4.77
2023-02-22T04:43:24.204Z,4.67
2023-02-22T04:44:24.184Z,4.63
2023-02-22T04:45:24.195Z,4.51
2023-02-22T04:46:24.221Z,4.54
2023-02-22T04:47:24.148Z,4.52
2023-02-22T04:48:24.133Z,4.54
2023-02-22T04:49:24.123Z,4.54
2023-02-22T04:50:24.107Z,4.54
2023-02-22T04:51:24.096Z,4.54
2023-02-22T04:52:24.083Z,4.59
2023-02-22T04:53:24.070Z,4.65
2023-02-22T04:54:24.056Z,4.69
2023-02-22T04:55:24.052Z,4.55
2023-02-22T04:56:24.035Z,4.62
2023-02-22T04:57:24.025Z,4.63
2023-02-22T04:58:24.019Z,4.69
2023-02-22T04:59:23.992Z,4.70
2023-02-22T05:00:23.980Z,4.78
2023-02-22T05:01:23.993Z,4.75
2023-02-22T05:02:24.042Z,4.73
2023-02-22T05:03:23.945Z,4.70
2023-02-22T05:04:23.950Z,4.67
2023-02-22T05:05:23.921Z,4.54
2023-02-22T05:06:23.899Z,4.52
2023-02-22T05:07:23.889Z,4.51
2023-02-22T05:08:23.873Z,4.52
2023-02-22T05:09:23.888Z,4.51
2023-02-22T05:10:23.847Z,4.51
2023-02-22T05:11:23.837Z,4.59
2023-02-22T05:12:23.824Z,4.58
2023-02-22T05:13:23.806Z,4.59
2023-02-22T05:14:23.792Z,4.58
2023-02-22T05:15:23.781Z,4.54
2023-02-22T05:16:23.860Z,4.51
2023-02-22T05:17:23.784Z,4.51
2023-02-22T05:18:23.737Z,4.44
2023-02-22T05:19:23.725Z,4.44
2023-02-22T05:20:23.709Z,4.47
2023-02-22T05:21:23.698Z,4.51
2023-02-22T05:22:23.683Z,4.60
2023-02-22T05:23:23.691Z,4.65
2023-02-22T05:24:23.670Z,4.72
2023-02-22T05:25:23.643Z,4.77
2023-02-22T05:26:23.672Z,4.75
2023-02-22T05:27:23.620Z,4.73
2023-02-22T05:28:23.605Z,4.73
2023-02-22T05:29:23.589Z,4.81
2023-02-22T05:30:23.685Z,4.84
2023-02-22T05:31:23.699Z,4.85
2023-02-22T05:32:23.577Z,4.93
2023-02-22T05:33:23.560Z,4.96
2023-02-22T05:34:23.519Z,5.02
2023-02-22T05:35:23.531Z,5.05
2023-02-22T05:36:23.495Z,5.17
2023-02-22T05:37:23.482Z,5.12
2023-02-22T05:38:23.480Z,4.99
2023-02-22T05:39:23.462Z,4.83
2023-02-22T05:40:23.441Z,4.78
2023-02-22T05:41:23.429Z,4.77
2023-02-22T05:42:23.424Z,4.78
2023-02-22T05:43:23.403Z,4.72
2023-02-22T05:44:23.388Z,4.77
2023-02-22T05:45:23.377Z,4.75
2023-02-22T05:46:23.424Z,4.77
2023-02-22T05:47:23.348Z,4.77
2023-02-22T05:48:23.333Z,4.78
2023-02-22T05:49:23.361Z,4.69
2023-02-22T05:50:23.306Z,4.66
2023-02-22T05:51:23.295Z,4.62
2023-02-22T05:52:23.278Z,4.67
2023-02-22T05:53:23.266Z,4.67
2023-02-22T05:54:23.252Z,4.69
2023-02-22T05:55:23.254Z,4.70
2023-02-22T05:56:23.230Z,4.66
2023-02-22T05:57:23.210Z,4.65
2023-02-22T05:58:23.199Z,4.65
2023-02-22T05:59:23.182Z,4.65
2023-02-22T06:00:23.197Z,4.65
2023-02-22T06:01:23.157Z,4.67
2023-02-22T06:02:23.143Z,4.75
2023-02-22T06:03:23.131Z,4.85
2023-02-22T06:04:23.115Z,4.95
2023-02-22T06:05:23.179Z,5.01
2023-02-22T06:06:23.092Z,4.98
2023-02-22T06:07:23.075Z,4.93
2023-02-22T06:08:23.059Z,4.90
2023-02-22T06:09:23.051Z,4.88
2023-02-22T06:10:23.039Z,4.83
2023-02-22T06:11:23.025Z,4.88
2023-02-22T06:12:23.003Z,4.87
2023-02-22T06:13:22.998Z,4.85
2023-02-22T06:14:22.982Z,4.84
2023-02-22T06:15:22.985Z,4.81
2023-02-22T06:16:23.028Z,4.80
2023-02-22T06:17:22.944Z,4.87
2023-02-22T06:18:22.935Z,4.91
2023-02-22T06:19:22.912Z,4.99
2023-02-22T06:20:22.900Z,4.98
2023-02-22T06:21:22.918Z,4.99
2023-02-22T06:22:22.880Z,4.98
2023-02-22T06:23:22.862Z,4.96
2023-02-22T06:24:22.844Z,4.98
2023-02-22T06:25:22.834Z,4.99
2023-02-22T06:26:22.846Z,5.03
2023-02-22T06:27:22.829Z,5.11
2023-02-22T06:28:22.790Z,5.14
2023-02-22T06:29:22.777Z,5.03
2023-02-22T06:30:22.835Z,5.01
2023-02-22T06:31:22.803Z,4.95
2023-02-22T06:32:22.789Z,4.83
2023-02-22T06:33:22.724Z,4.85
2023-02-22T06:34:22.713Z,4.96
2023-02-22T06:35:22.707Z,5.01
2023-02-22T06:36:22.683Z,5.11
2023-02-22T06:37:22.697Z,5.11
2023-02-22T06:38:22.661Z,5.03
2023-02-22T06:39:22.646Z,4.95
2023-02-22T06:40:22.628Z,4.90
2023-02-22T06:41:22.616Z,4.91
2023-02-22T06:42:22.691Z,4.93
2023-02-22T06:43:22.588Z,4.90
2023-02-22T06:44:22.576Z,4.95
2023-02-22T06:45:22.628Z,4.99
2023-02-22T06:46:22.546Z,4.88
2023-02-22T06:47:22.537Z,4.67
2023-02-22T06:48:22.519Z,4.65
2023-02-22T06:49:22.508Z,4.58
2023-02-22T06:50:22.512Z,4.62
2023-02-22T06:51:22.483Z,4.70
2023-02-22T06:52:22.464Z,4.87
2023-02-22T06:53:22.481Z,5.02
2023-02-22T06:54:22.441Z,5.17
2023-02-22T06:55:22.425Z,5.12
2023-02-22T06:56:22.411Z,4.98
2023-02-22T06:57:22.398Z,4.88
2023-02-22T06:58:22.386Z,4.83
2023-02-22T06:59:22.373Z,4.91
2023-02-22T07:00:22.364Z,4.91
2023-02-22T07:01:22.416Z,4.85
2023-02-22T07:02:22.333Z,4.81
2023-02-22T07:03:22.387Z,4.83
2023-02-22T07:04:22.306Z,4.81
2023-02-22T07:05:22.301Z,4.87
2023-02-22T07:06:22.280Z,4.88
2023-02-22T07:07:22.267Z,4.96
2023-02-22T07:08:22.255Z,4.96
2023-02-22T07:09:22.267Z,4.93
2023-02-22T07:10:22.233Z,4.96
2023-02-22T07:11:22.216Z,5.05
2023-02-22T07:12:22.204Z,5.02
2023-02-22T07:13:22.188Z,5.05
2023-02-22T07:14:22.175Z,4.99
2023-02-22T07:15:22.161Z,4.98
2023-02-22T07:16:22.211Z,5.08
2023-02-22T07:17:22.136Z,5.08
2023-02-22T07:18:22.120Z,4.95
2023-02-22T07:19:22.107Z,4.90
2023-02-22T07:20:22.110Z,4.87
2023-02-22T07:21:22.089Z,4.96
2023-02-22T07:22:22.068Z,4.93
2023-02-22T07:23:22.059Z,4.88
2023-02-22T07:24:22.044Z,4.88
2023-02-22T07:25:22.056Z,5.01
2023-02-22T07:26:22.016Z,4.99
2023-02-22T07:27:22.003Z,4.93
2023-02-22T07:28:21.988Z,5.03
2023-02-22T07:29:21.977Z,5.14
2023-02-22T07:30:21.976Z,5.21
2023-02-22T07:31:21.952Z,5.26
2023-02-22T07:32:22.021Z,5.32
2023-02-22T07:33:21.924Z,5.32
2023-02-22T07:34:21.911Z,5.35
2023-02-22T07:35:21.914Z,5.32
2023-02-22T07:36:21.889Z,5.27
2023-02-22T07:37:21.873Z,5.32
2023-02-22T07:38:21.860Z,5.37
2023-02-22T07:39:21.848Z,5.48
2023-02-22T07:40:21.842Z,5.63
2023-02-22T07:41:21.869Z,5.64
2023-02-22T07:42:21.806Z,5.67
2023-02-22T07:43:21.815Z,5.74
2023-02-22T07:44:21.781Z,5.47
2023-02-22T07:45:21.814Z,5.37
2023-02-22T07:46:21.756Z,5.48
2023-02-22T07:47:21.745Z,5.35
2023-02-22T07:48:21.730Z,5.21
2023-02-22T07:49:21.726Z,5.12
2023-02-22T07:50:21.720Z,5.24
2023-02-22T07:51:21.692Z,5.16
2023-02-22T07:52:21.680Z,5.14
2023-02-22T07:53:21.666Z,5.14
2023-02-22T07:54:21.656Z,5.29
2023-02-22T07:55:21.642Z,5.42
2023-02-22T07:56:21.630Z,5.27
2023-02-22T07:57:21.640Z,5.35
2023-02-22T07:58:21.617Z,5.38
2023-02-22T07:59:21.625Z,5.42
2023-02-22T08:00:21.583Z,5.54
2023-02-22T08:01:21.605Z,5.56
2023-02-22T08:02:21.594Z,5.58
2023-02-22T08:03:21.642Z,5.65
2023-02-22T08:04:21.531Z,5.74
2023-02-22T08:05:21.551Z,5.79
2023-02-22T08:06:21.537Z,5.86
2023-02-22T08:07:21.488Z,5.93
2023-02-22T08:08:21.479Z,5.99
2023-02-22T08:09:21.468Z,6.04
2023-02-22T08:10:21.448Z,6.04
2023-02-22T08:11:21.435Z,6.03
2023-02-22T08:12:21.423Z,6.01
2023-02-22T08:13:21.431Z,6.06
2023-02-22T08:14:21.395Z,6.09
2023-02-22T08:15:21.391Z,6.09
2023-02-22T08:16:21.373Z,6.19
2023-02-22T08:17:21.481Z,6.26
2023-02-22T08:18:21.364Z,6.30
2023-02-22T08:19:21.329Z,6.21
2023-02-22T08:20:21.318Z,6.15
2023-02-22T08:21:21.303Z,6.08
2023-02-22T08:22:22.100Z,6.11
2023-02-22T08:23:21.276Z,5.99
2023-02-22T08:24:21.268Z,6.12
2023-02-22T08:25:21.265Z,6.24
2023-02-22T08:26:21.240Z,6.26
2023-02-22T08:27:21.228Z,6.35
2023-02-22T08:28:21.214Z,6.39
2023-02-22T08:29:21.221Z,6.47
2023-02-22T08:30:21.263Z,6.24
2023-02-22T08:31:21.286Z,6.15
2023-02-22T08:32:21.409Z,6.17
2023-02-22T08:33:21.355Z,6.27
2023-02-22T08:34:21.142Z,6.29
2023-02-22T08:35:21.124Z,6.22
2023-02-22T08:36:21.109Z,6.27
2023-02-22T08:37:21.093Z,6.29
2023-02-22T08:38:21.084Z,6.27
2023-02-22T08:39:21.071Z,6.40
2023-02-22T08:40:21.059Z,6.45
2023-02-22T08:41:21.062Z,6.48
2023-02-22T08:42:21.045Z,6.55
2023-02-22T08:43:21.018Z,6.60
2023-02-22T08:44:21.012Z,6.69
2023-02-22T08:45:21.036Z,6.65
2023-02-22T08:46:21.047Z,6.75
2023-02-22T08:47:20.960Z,6.86
2023-02-22T08:48:20.960Z,6.76
2023-02-22T08:49:20.933Z,6.76
2023-02-22T08:50:20.924Z,6.72
2023-02-22T08:51:20.909Z,6.79
2023-02-22T08:52:20.897Z,6.75
2023-02-22T08:53:20.885Z,6.58
2023-02-22T08:54:20.870Z,6.42
2023-02-22T08:55:20.857Z,6.42
2023-02-22T08:56:20.842Z,6.51
2023-02-22T08:57:21.851Z,6.57
2023-02-22T08:58:20.815Z,6.61
2023-02-22T08:59:20.801Z,6.70
2023-02-22T09:00:20.788Z,6.63
2023-02-22T09:01:31.449Z,6.60
2023-02-22T09:02:22.857Z,6.66
2023-02-22T09:03:20.805Z,6.61
2023-02-22T09:04:20.738Z,6.63
2023-02-22T09:05:20.730Z,6.55
2023-02-22T09:06:20.710Z,6.55
2023-02-22T09:07:20.694Z,6.58
2023-02-22T09:08:20.683Z,6.72
2023-02-22T09:09:20.668Z,6.75
2023-02-22T09:10:20.672Z,6.69
2023-02-22T09:11:20.651Z,6.75
2023-02-22T09:12:20.634Z,6.76
2023-02-22T09:13:20.652Z,6.69
2023-02-22T09:14:20.604Z,6.72
2023-02-22T09:15:20.590Z,6.80
2023-02-22T09:16:20.645Z,6.97
2023-02-22T09:17:20.587Z,7.05
2023-02-22T09:18:20.594Z,7.15
2023-02-22T09:19:20.588Z,7.15
2023-02-22T09:20:20.601Z,7.15
2023-02-22T09:21:20.520Z,7.15
2023-02-22T09:22:20.503Z,7.09
2023-02-22T09:23:21.621Z,7.23
2023-02-22T09:24:20.512Z,7.17
2023-02-22T09:25:20.507Z,7.20
2023-02-22T09:26:20.450Z,7.17
2023-02-22T09:27:20.445Z,7.20
2023-02-22T09:28:20.430Z,7.25
2023-02-22T09:29:20.410Z,7.37
2023-02-22T09:30:20.483Z,7.46
2023-02-22T09:31:21.159Z,7.48
2023-02-22T09:32:20.530Z,7.37
2023-02-22T09:33:20.474Z,7.30
2023-02-22T09:34:20.351Z,7.24
2023-02-22T09:35:20.345Z,7.21
2023-02-22T09:36:20.326Z,7.24
2023-02-22T09:37:20.311Z,7.24
2023-02-22T09:38:20.300Z,7.15
2023-02-22T09:39:20.288Z,7.27
2023-02-22T09:40:20.274Z,7.25
2023-02-22T09:41:20.260Z,7.25
2023-02-22T09:42:20.248Z,7.32
2023-02-22T09:43:20.236Z,7.17
2023-02-22T09:44:20.229Z,7.03
2023-02-22T09:45:20.212Z,7.02
2023-02-22T09:46:20.641Z,7.13
2023-02-22T09:47:20.232Z,7.30
2023-02-22T09:48:22.339Z,7.30
2023-02-22T09:49:20.193Z,7.39
2023-02-22T09:50:20.150Z,7.50
2023-02-22T09:51:20.132Z,7.60
2023-02-22T09:52:20.120Z,7.60
2023-02-22T09:53:20.108Z,7.60
2023-02-22T09:54:20.100Z,7.66
2023-02-22T09:55:20.083Z,7.63
2023-02-22T09:56:20.455Z,7.63
2023-02-22T09:57:20.084Z,7.60
2023-02-22T09:58:20.048Z,7.52
2023-02-22T09:59:20.049Z,7.60
2023-02-22T10:00:20.058Z,7.73
2023-02-22T10:01:20.013Z,7.85
2023-02-22T10:02:20.009Z,7.88
2023-02-22T10:03:21.457Z,7.86
2023-02-22T10:04:19.969Z,7.85
2023-02-22T10:05:20.073Z,7.88
2023-02-22T10:06:19.941Z,8.00
2023-02-22T10:07:19.929Z,8.07
2023-02-22T10:08:19.921Z,8.03
2023-02-22T10:09:19.907Z,8.01
2023-02-22T10:10:20.016Z,7.97
2023-02-22T10:11:19.876Z,8.07
2023-02-22T10:12:19.867Z,8.01
2023-02-22T10:13:19.847Z,8.11
2023-02-22T10:14:19.836Z,8.17
2023-02-22T10:15:19.832Z,8.29
2023-02-22T10:16:20.246Z,8.29
2023-02-22T10:17:19.827Z,8.35
2023-02-22T10:18:19.787Z,8.33
2023-02-22T10:19:19.769Z,8.40
2023-02-22T10:20:19.867Z,8.44
2023-02-22T10:21:19.847Z,8.55
2023-02-22T10:22:19.742Z,8.59
2023-02-22T10:23:19.716Z,8.62
2023-02-22T10:24:19.705Z,8.62
2023-02-22T10:25:19.689Z,8.61
2023-02-22T10:26:19.971Z,8.52
2023-02-22T10:27:19.662Z,8.55
2023-02-22T10:28:19.651Z,8.62
2023-02-22T10:29:19.636Z,8.70
2023-02-22T10:30:25.095Z,8.73
2023-02-22T10:31:19.767Z,8.77
2023-02-22T10:32:19.642Z,8.76
2023-02-22T10:33:19.585Z,8.74
2023-02-22T10:34:19.572Z,8.76
2023-02-22T10:35:19.565Z,8.89
2023-02-22T10:36:19.784Z,8.94
2023-02-22T10:37:19.593Z,9.01
2023-02-22T10:38:19.518Z,9.02
2023-02-22T10:39:19.574Z,9.04
2023-02-22T10:40:19.505Z,9.16
2023-02-22T10:41:19.476Z,9.25
2023-02-22T10:42:19.463Z,9.31
2023-02-22T10:43:19.450Z,9.47
2023-02-22T10:44:19.440Z,9.67
2023-02-22T10:45:19.422Z,9.89
2023-02-22T10:46:19.895Z,9.97
2023-02-22T10:47:21.794Z,10.09
2023-02-22T10:48:19.388Z,10.20
2023-02-22T10:49:19.367Z,10.34
2023-02-22T10:50:19.358Z,10.45
2023-02-22T10:51:19.356Z,10.45
2023-02-22T10:52:19.360Z,10.45
2023-02-22T10:53:19.347Z,10.44
2023-02-22T10:54:19.314Z,10.50
2023-02-22T10:55:19.296Z,10.63
2023-02-22T10:57:19.268Z,10.25
2023-02-22T10:58:19.255Z,10.26
2023-02-22T10:59:19.240Z,10.09
2023-02-22T11:00:19.260Z,9.99
2023-02-22T11:01:19.491Z,10.14
2023-02-22T11:02:19.202Z,9.97
2023-02-22T11:03:19.188Z,9.68
2023-02-22T11:04:19.173Z,9.65
2023-02-22T11:05:19.250Z,9.73
2023-02-22T11:06:19.152Z,9.87
2023-02-22T11:07:19.138Z,10.02
2023-02-22T11:08:19.121Z,10.12
2023-02-22T11:09:19.175Z,10.14
2023-02-22T11:10:19.094Z,10.26
2023-02-22T11:11:19.082Z,10.15
2023-02-22T11:12:19.068Z,10.23
2023-02-22T11:13:19.059Z,10.42
2023-02-22T11:14:19.043Z,10.48
2023-02-22T11:15:19.054Z,10.38
2023-02-22T11:16:19.050Z,10.40
2023-02-22T11:17:19.005Z,10.33
2023-02-22T11:18:18.989Z,10.29
2023-02-22T11:19:18.974Z,10.30
2023-02-22T11:20:18.962Z,10.25
2023-02-22T11:21:19.238Z,10.30
2023-02-22T11:22:18.936Z,10.32
2023-02-22T11:23:18.922Z,10.40
2023-02-22T11:24:18.910Z,10.33
2023-02-22T11:25:18.928Z,10.30
2023-02-22T11:26:18.884Z,10.32
2023-02-22T11:27:18.870Z,10.30
2023-02-22T11:28:18.856Z,10.45
2023-02-22T11:29:18.865Z,10.14
2023-02-22T11:30:18.861Z,10.29
2023-02-22T11:31:19.120Z,10.52
2023-02-22T11:32:18.846Z,10.67
2023-02-22T11:33:18.790Z,10.72
2023-02-22T11:34:18.778Z,10.88
2023-02-22T11:35:19.919Z,10.80
2023-02-22T11:36:18.750Z,10.78
2023-02-22T11:37:18.738Z,10.83
2023-02-22T11:38:18.726Z,10.99
2023-02-22T11:39:18.713Z,11.27
2023-02-22T11:40:18.695Z,11.46
2023-02-22T11:41:19.143Z,11.54
2023-02-22T11:42:18.672Z,11.61
2023-02-22T11:43:18.657Z,11.75
2023-02-22T11:44:18.642Z,11.83
2023-02-22T11:45:18.629Z,11.83
2023-02-22T11:46:18.756Z,11.95
2023-02-22T11:47:18.604Z,12.13
2023-02-22T11:48:18.591Z,12.11
2023-02-22T11:49:18.586Z,12.16
2023-02-22T11:50:18.592Z,12.33
2023-02-22T11:51:18.924Z,12.53
2023-02-22T11:52:18.553Z,12.22
2023-02-22T11:53:18.523Z,12.26
2023-02-22T11:54:18.510Z,12.28
2023-02-22T11:55:19.932Z,12.41
2023-02-22T11:56:20.532Z,12.64
2023-02-22T11:57:18.498Z,12.70
2023-02-22T11:58:18.465Z,12.82
2023-02-22T11:59:18.444Z,12.89
2023-02-22T12:00:18.431Z,12.85
2023-02-22T12:01:18.417Z,13.05
2023-02-22T12:02:18.404Z,13.22
2023-02-22T12:03:18.413Z,13.30
2023-02-22T12:04:18.400Z,13.30
2023-02-22T12:05:18.439Z,13.48
2023-02-22T12:06:18.691Z,13.66
2023-02-22T12:07:18.337Z,13.77
2023-02-22T12:08:20.053Z,13.63
2023-02-22T12:09:18.311Z,13.80
2023-02-22T12:10:18.315Z,14.01
2023-02-22T12:11:18.426Z,13.48
2023-02-22T12:12:18.270Z,11.90
2023-02-22T12:13:18.400Z,11.61
2023-02-22T12:14:18.275Z,11.08
2023-02-22T12:15:18.234Z,10.75
2023-02-22T12:16:18.526Z,10.29
2023-02-22T12:17:18.203Z,10.11
2023-02-22T12:18:18.206Z,10.12
2023-02-22T12:19:18.175Z,10.62
2023-02-22T12:20:18.163Z,11.08
2023-02-22T12:21:18.148Z,11.69
2023-02-22T12:22:18.141Z,12.11
2023-02-22T12:23:18.122Z,12.51
2023-02-22T12:24:18.111Z,12.31
2023-02-22T12:25:18.096Z,12.30
2023-02-22T12:26:18.365Z,12.30
2023-02-22T12:27:18.116Z,12.30
2023-02-22T12:28:24.829Z,12.68
2023-02-22T12:29:20.080Z,13.26
2023-02-22T12:30:18.074Z,13.17
2023-02-22T12:31:18.487Z,13.28
2023-02-22T12:32:18.146Z,13.65
2023-02-22T12:33:17.999Z,13.43
2023-02-22T12:34:18.010Z,13.62
2023-02-22T12:35:17.970Z,13.99
2023-02-22T12:36:17.955Z,14.61
2023-02-22T12:37:17.988Z,15.30
2023-02-22T12:38:17.931Z,16.02
2023-02-22T12:39:17.919Z,16.78
2023-02-22T12:40:17.905Z,17.38
2023-02-22T12:41:18.205Z,17.38
2023-02-22T12:42:17.881Z,17.06
2023-02-22T12:43:17.869Z,16.88
2023-02-22T12:44:17.854Z,16.77
2023-02-22T12:45:17.872Z,16.56
2023-02-22T12:46:17.868Z,16.60
2023-02-22T12:47:17.819Z,16.65
2023-02-22T12:48:17.808Z,16.11
2023-02-22T12:49:17.788Z,16.12
2023-02-22T12:50:17.780Z,16.02
2023-02-22T12:51:18.077Z,15.84
2023-02-22T12:52:21.916Z,15.65
2023-02-22T12:53:17.735Z,15.65
2023-02-22T12:54:17.760Z,15.50
2023-02-22T12:55:17.709Z,15.54
2023-02-22T12:56:17.700Z,15.46
2023-02-22T12:57:17.683Z,15.43
2023-02-22T12:58:17.671Z,15.40
2023-02-22T12:59:17.656Z,15.30
2023-02-22T13:00:17.643Z,15.33
2023-02-22T13:01:18.229Z,15.37
2023-02-22T13:02:17.617Z,15.34
2023-02-22T13:03:17.604Z,15.38
2023-02-22T13:04:21.196Z,15.75
2023-02-22T13:05:17.597Z,15.84
2023-02-22T13:06:17.564Z,15.72
2023-02-22T13:07:17.551Z,15.42
2023-02-22T13:08:17.537Z,15.65
2023-02-22T13:09:17.535Z,15.33
2023-02-22T13:10:17.511Z,15.51
2023-02-22T13:11:17.870Z,15.93
2023-02-22T13:12:17.484Z,16.30
2023-02-22T13:13:17.473Z,16.62
2023-02-22T13:14:17.481Z,17.07
2023-02-22T13:15:17.461Z,17.38